Time;durP1;ratioP1;P1;durP2;ratioP2;P2;SDS_P1;SDS_P2;PMS_P1;PMS_P2;Temp;Humidity;BMP_temperature;BMP_pressure;BME280_temperature;BME280_humidity;BME280_pressure;Samples;Min_cycle;Max_cycle;Signal;HPM_P1;HPM_P2
2023/09/09 00:01:05;;;;;;;12.70;6.53;;;16.90;99.90;;;;;;2684135;39;21329;31
2023/09/09 00:03:38;;;;;;;7.95;6.07;;;16.80;99.90;;;;;;2586225;54;20775;31
2023/09/09 00:06:11;;;;;;;9.25;7.05;;;16.80;99.90;;;;;;2604815;46;20935;31
2023/09/09 00:08:44;;;;;;;10.00;4.97;;;16.80;99.90;;;;;;2586574;54;20489;31
2023/09/09 00:11:16;;;;;;;11.90;6.15;;;16.80;99.90;;;;;;2586235;54;20026;31
2023/09/09 00:13:48;;;;;;;12.65;7.00;;;16.80;99.90;;;;;;2605059;46;20027;31
2023/09/09 00:16:23;;;;;;;11.45;7.25;;;16.80;99.90;;;;;;2586083;54;20154;31
2023/09/09 00:18:58;;;;;;;11.17;6.90;;;16.80;99.90;;;;;;2684404;39;21500;31
2023/09/09 00:21:32;;;;;;;11.98;6.38;;;16.70;99.90;;;;;;2586295;54;20022;31
2023/09/09 00:24:07;;;;;;;13.50;7.13;;;16.70;99.90;;;;;;2604268;46;21225;31
2023/09/09 00:26:39;;;;;;;12.63;6.75;;;16.70;99.90;;;;;;2683659;39;20407;31
2023/09/09 00:29:11;;;;;;;10.97;6.53;;;16.70;99.90;;;;;;2585968;54;20539;31
2023/09/09 00:31:50;;;;;;;10.35;6.85;;;16.60;99.90;;;;;;2586040;54;20575;31
2023/09/09 00:34:24;;;;;;;11.00;7.35;;;16.60;99.90;;;;;;2586247;54;20870;31
2023/09/09 00:36:57;;;;;;;9.83;6.47;;;16.60;99.90;;;;;;2586477;54;20791;31
2023/09/09 00:39:30;;;;;;;12.00;7.10;;;16.50;99.90;;;;;;2585817;54;20121;31
2023/09/09 00:42:03;;;;;;;9.65;6.32;;;16.50;99.90;;;;;;2586036;54;20941;31
2023/09/09 00:44:35;;;;;;;11.10;7.28;;;16.50;99.90;;;;;;2683959;39;21513;31
2023/09/09 00:47:10;;;;;;;11.73;6.55;;;16.40;99.90;;;;;;2586164;54;20072;31
2023/09/09 00:49:43;;;;;;;9.88;6.75;;;16.40;99.90;;;;;;2586089;54;20036;31
2023/09/09 00:52:16;;;;;;;12.90;6.53;;;16.30;99.90;;;;;;2684089;39;20376;31
2023/09/09 00:54:48;;;;;;;10.30;6.43;;;16.30;99.90;;;;;;2585947;54;20051;31
2023/09/09 00:57:23;;;;;;;9.10;6.03;;;16.30;99.90;;;;;;2604510;46;20882;31
2023/09/09 00:59:56;;;;;;;9.48;6.53;;;16.30;99.90;;;;;;2585920;54;20057;31
2023/09/09 01:02:32;;;;;;;9.23;6.07;;;16.30;99.90;;;;;;2586005;54;20033;31
2023/09/09 01:05:06;;;;;;;11.75;6.18;;;16.20;99.90;;;;;;2586150;54;20033;31
2023/09/09 01:07:45;;;;;;;9.15;6.20;;;16.20;99.90;;;;;;2586045;54;20050;31
2023/09/09 01:10:20;;;;;;;10.02;6.18;;;16.10;99.90;;;;;;2604821;46;20030;31
2023/09/09 01:12:55;;;;;;;7.88;5.47;;;16.10;99.90;;;;;;2586199;54;20029;31
2023/09/09 01:15:27;;;;;;;9.45;5.72;;;16.10;99.90;;;;;;2585924;54;20026;31
2023/09/09 01:18:03;;;;;;;8.80;6.28;;;16.10;99.90;;;;;;2585871;54;20056;31
2023/09/09 01:20:35;;;;;;;9.50;5.80;;;16.10;99.90;;;;;;2585933;54;20031;31
2023/09/09 01:23:13;;;;;;;9.70;6.50;;;16.00;99.90;;;;;;2586016;54;20640;31
2023/09/09 01:25:45;;;;;;;8.33;6.33;;;16.00;99.90;;;;;;2585973;54;20809;31
2023/09/09 01:28:22;;;;;;;9.70;6.77;;;16.00;99.90;;;;;;2586125;54;20030;31
2023/09/09 01:30:54;;;;;;;8.90;6.05;;;16.00;99.90;;;;;;2586151;54;20920;31
2023/09/09 01:33:26;;;;;;;8.45;6.00;;;16.00;99.90;;;;;;2585811;54;20990;31
2023/09/09 01:35:59;;;;;;;8.98;6.10;;;15.90;99.90;;;;;;2604750;46;20906;31
2023/09/09 01:38:34;;;;;;;8.85;6.15;;;15.90;99.90;;;;;;2585851;54;20033;31
2023/09/09 01:41:07;;;;;;;;;;;15.90;99.90;;;;;;2586089;54;20181;31
2023/09/09 01:43:39;;;;;;;10.63;6.73;;;15.90;99.90;;;;;;2604429;46;20668;31
2023/09/09 01:46:12;;;;;;;11.20;7.30;;;15.90;99.90;;;;;;2585936;54;20022;31
2023/09/09 01:48:45;;;;;;;11.15;6.50;;;15.80;99.90;;;;;;2683318;39;20406;31
2023/09/09 01:51:18;;;;;;;9.70;6.50;;;15.80;99.90;;;;;;2585866;54;20061;31
2023/09/09 01:53:54;;;;;;;9.02;6.53;;;15.70;99.90;;;;;;2585821;54;20140;31
2023/09/09 01:56:26;;;;;;;9.17;6.67;;;15.70;99.90;;;;;;2585896;54;20031;31
2023/09/09 01:58:58;;;;;;;9.43;6.85;;;15.70;99.90;;;;;;2604500;46;20775;31
2023/09/09 02:01:31;;;;;;;10.73;7.43;;;15.70;99.90;;;;;;2585644;54;20900;31
2023/09/09 02:04:03;;;;;;;13.63;7.47;;;15.60;99.90;;;;;;2585557;54;20031;31
2023/09/09 02:06:38;;;;;;;9.00;6.35;;;15.60;99.90;;;;;;2683709;39;22489;31
2023/09/09 02:09:13;;;;;;;8.05;5.85;;;15.60;99.90;;;;;;2585291;54;20810;31
2023/09/09 02:11:45;;;;;;;13.70;6.20;;;15.60;99.90;;;;;;2585764;54;20030;31
2023/09/09 02:14:19;;;;;;;11.15;7.35;;;15.60;99.90;;;;;;2585923;54;20022;31
2023/09/09 02:16:53;;;;;;;9.98;7.03;;;15.50;99.90;;;;;;2585635;54;19949;31
2023/09/09 02:19:26;;;;;;;11.60;6.90;;;15.50;99.90;;;;;;2585075;54;20105;31
2023/09/09 02:21:59;;;;;;;9.73;6.28;;;15.50;99.90;;;;;;2585963;54;20254;31
2023/09/09 02:24:37;;;;;;;10.82;7.07;;;15.50;99.90;;;;;;2585721;54;20046;31
2023/09/09 02:27:09;;;;;;;9.18;6.45;;;15.50;99.90;;;;;;2585759;54;20097;31
2023/09/09 02:29:42;;;;;;;10.90;6.93;;;15.50;99.90;;;;;;2603648;46;20026;31
2023/09/09 02:32:15;;;;;;;11.45;6.85;;;15.50;99.90;;;;;;2585600;54;20328;31
2023/09/09 02:34:47;;;;;;;9.98;7.13;;;15.50;99.90;;;;;;2585954;54;20751;31
2023/09/09 02:37:22;;;;;;;11.85;7.03;;;15.50;99.90;;;;;;2603833;46;20872;31
2023/09/09 02:39:57;;;;;;;10.73;7.22;;;15.40;99.90;;;;;;2604354;47;20033;31
2023/09/09 02:42:31;;;;;;;9.57;6.50;;;15.40;99.90;;;;;;2585385;54;20031;31
2023/09/09 02:45:06;;;;;;;11.03;7.17;;;15.40;99.90;;;;;;2585678;54;20023;31
2023/09/09 02:47:39;;;;;;;10.20;7.78;;;15.40;99.90;;;;;;2585782;54;20744;31
2023/09/09 02:50:15;;;;;;;10.25;6.50;;;15.40;99.90;;;;;;2585849;54;20861;31
2023/09/09 02:52:51;;;;;;;12.80;6.87;;;15.30;99.90;;;;;;2585875;54;20022;31
2023/09/09 02:55:26;;;;;;;10.30;7.17;;;15.30;99.90;;;;;;2585358;54;20903;31
2023/09/09 02:57:58;;;;;;;10.88;7.00;;;15.30;99.90;;;;;;2585711;54;21031;31
2023/09/09 03:00:32;;;;;;;10.15;6.78;;;15.30;99.90;;;;;;2604180;47;20027;31
2023/09/09 03:03:10;;;;;;;11.45;7.25;;;15.20;99.90;;;;;;2585523;54;20885;31
2023/09/09 03:05:44;;;;;;;11.50;6.97;;;15.20;99.90;;;;;;2585491;54;20113;31
2023/09/09 03:08:20;;;;;;;10.95;7.38;;;15.20;99.90;;;;;;2585611;54;20048;31
2023/09/09 03:10:58;;;;;;;10.70;6.80;;;15.20;99.90;;;;;;2585774;54;20031;31
2023/09/09 03:13:33;;;;;;;10.70;6.70;;;15.20;99.90;;;;;;2585076;54;20305;31
2023/09/09 03:16:06;;;;;;;9.65;6.95;;;15.10;99.90;;;;;;2585530;54;20026;31
2023/09/09 03:18:42;;;;;;;11.95;7.05;;;15.10;99.90;;;;;;2585395;54;20061;31
2023/09/09 03:21:15;;;;;;;11.80;7.80;;;15.10;99.90;;;;;;2603704;47;20081;31
2023/09/09 03:23:48;;;;;;;12.45;7.32;;;15.10;99.90;;;;;;2585551;54;19942;31
2023/09/09 03:26:23;;;;;;;11.73;7.57;;;15.10;99.90;;;;;;2585563;54;20854;31
2023/09/09 03:28:58;;;;;;;8.70;5.68;;;15.10;99.90;;;;;;2584728;54;20860;31
2023/09/09 03:31:30;;;;;;;12.90;7.10;;;15.10;99.90;;;;;;2604705;47;20925;31
2023/09/09 03:34:03;;;;;;;11.30;7.20;;;15.10;99.90;;;;;;2586324;54;20080;31
2023/09/09 03:36:42;;;;;;;12.18;7.60;;;15.10;99.90;;;;;;2585906;54;20269;31
2023/09/09 03:39:15;;;;;;;9.07;6.57;;;15.00;99.90;;;;;;2586257;54;20035;31
2023/09/09 03:41:52;;;;;;;10.27;6.07;;;15.00;99.90;;;;;;2604442;46;20253;31
2023/09/09 03:44:24;;;;;;;11.17;6.80;;;15.00;99.90;;;;;;2586307;54;20049;31
2023/09/09 03:46:57;;;;;;;11.20;6.85;;;15.00;99.90;;;;;;2586459;54;20089;31
2023/09/09 03:49:33;;;;;;;10.95;7.28;;;15.00;99.90;;;;;;2586144;54;20030;31
2023/09/09 03:52:08;;;;;;;12.95;7.30;;;15.00;99.90;;;;;;2586240;54;20973;31
2023/09/09 03:54:43;;;;;;;11.45;7.35;;;14.90;99.90;;;;;;2605022;46;20050;31
2023/09/09 03:57:20;;;;;;;8.57;6.43;;;14.90;99.90;;;;;;2604489;46;20023;31
2023/09/09 03:59:53;;;;;;;10.85;7.15;;;14.90;99.90;;;;;;2586113;54;20057;31
2023/09/09 04:02:25;;;;;;;11.93;7.70;;;14.90;99.90;;;;;;2586271;54;20749;31
2023/09/09 04:05:03;;;;;;;11.13;7.07;;;14.90;99.90;;;;;;2605036;46;20027;31
2023/09/09 04:07:37;;;;;;;13.50;7.55;;;14.90;99.90;;;;;;2585245;54;20522;31
2023/09/09 04:10:12;;;;;;;12.80;7.75;;;14.90;99.90;;;;;;2586106;54;21005;31
2023/09/09 04:12:52;;;;;;;11.80;7.72;;;14.90;99.90;;;;;;2586161;54;20849;31
2023/09/09 04:15:27;;;;;;;11.93;7.35;;;14.90;99.90;;;;;;2604791;46;20026;31
2023/09/09 04:18:01;;;;;;;11.80;6.88;;;14.90;99.90;;;;;;2604754;46;20022;31
2023/09/09 04:20:34;;;;;;;12.13;7.75;;;14.80;99.90;;;;;;2586200;54;20153;31
2023/09/09 04:23:19;;;;;;;11.43;7.95;;;14.80;99.90;;;;;;2585840;54;19989;31
2023/09/09 04:25:58;;;;;;;12.53;7.77;;;14.80;99.90;;;;;;2586242;54;20807;31
2023/09/09 04:28:34;;;;;;;14.88;8.05;;;14.80;99.90;;;;;;2586074;54;20891;31
2023/09/09 04:31:07;;;;;;;12.70;8.40;;;14.90;99.90;;;;;;2586186;54;20030;31
2023/09/09 04:33:53;;;;;;;10.33;7.67;;;14.80;99.90;;;;;;2586056;54;20030;31
2023/09/09 04:36:28;;;;;;;11.60;8.10;;;14.90;99.90;;;;;;2585708;54;20091;31
2023/09/09 04:39:03;;;;;;;15.25;8.05;;;14.90;99.90;;;;;;2604708;46;20906;31
2023/09/09 04:41:41;;;;;;;11.95;8.30;;;14.90;99.90;;;;;;2586015;54;20958;31
2023/09/09 04:44:25;;;;;;;9.70;7.27;;;14.80;99.90;;;;;;2586166;54;20810;31
2023/09/09 04:46:58;;;;;;;11.40;7.97;;;14.80;99.90;;;;;;2586278;54;20953;31
2023/09/09 04:49:35;;;;;;;13.50;8.33;;;14.80;99.90;;;;;;2586497;54;20774;31
2023/09/09 04:52:11;;;;;;;13.40;7.60;;;14.80;99.90;;;;;;2596770;46;20041;31
2023/09/09 04:54:45;;;;;;;;;;;14.90;99.90;;;;;;2586247;54;20034;31
2023/09/09 04:57:21;;;;;;;11.50;8.48;;;14.80;99.90;;;;;;2585354;54;21512;31
2023/09/09 05:00:06;;;;;;;11.77;8.07;;;14.90;99.90;;;;;;2586057;54;20026;31
2023/09/09 05:02:43;;;;;;;14.88;7.93;;;14.90;99.90;;;;;;2604332;46;20026;31
2023/09/09 05:05:16;;;;;;;11.30;8.40;;;15.00;99.90;;;;;;2586116;54;20030;31
2023/09/09 05:07:55;;;;;;;10.70;7.80;;;15.00;99.90;;;;;;2604336;46;20065;31
2023/09/09 05:10:33;;;;;;;12.33;8.70;;;15.00;99.90;;;;;;2586319;54;20863;31
2023/09/09 05:13:08;;;;;;;13.80;9.10;;;15.10;99.90;;;;;;2585961;54;20105;31
2023/09/09 05:15:46;;;;;;;11.80;8.10;;;15.10;99.90;;;;;;2585253;54;20246;31
2023/09/09 05:18:22;;;;;;;14.65;8.02;;;15.10;99.90;;;;;;2682388;39;20415;31
2023/09/09 05:21:02;;;;;;;15.18;9.13;;;15.10;99.90;;;;;;2585216;54;20029;31
2023/09/09 05:23:39;;;;;;;12.80;9.00;;;15.10;99.90;;;;;;2585044;54;20018;31
2023/09/09 05:26:16;;;;;;;16.10;9.70;;;15.20;99.90;;;;;;2585791;54;20061;31
2023/09/09 05:28:52;;;;;;;15.35;9.30;;;15.20;99.90;;;;;;2585112;54;20239;31
2023/09/09 05:31:29;;;;;;;11.60;8.20;;;15.20;99.90;;;;;;2590097;46;21024;31
2023/09/09 05:34:06;;;;;;;12.05;8.93;;;15.30;99.90;;;;;;2685352;39;22419;31
2023/09/09 05:36:42;;;;;;;14.77;10.33;;;15.40;99.90;;;;;;2586096;54;20023;31
2023/09/09 05:39:21;;;;;;;;;;;15.50;99.90;;;;;;2585729;54;20517;31
2023/09/09 05:41:58;;;;;;;13.27;9.02;;;15.60;99.90;;;;;;2604419;46;19962;31
2023/09/09 05:44:43;;;;;;;16.73;9.05;;;15.70;99.90;;;;;;2585895;54;20105;31
2023/09/09 05:47:22;;;;;;;15.60;9.63;;;16.00;99.90;;;;;;2604335;46;20035;31
2023/09/09 05:49:59;;;;;;;15.07;8.57;;;16.30;99.90;;;;;;2603719;46;21013;31
2023/09/09 05:52:36;;;;;;;12.98;9.02;;;16.70;99.90;;;;;;2585837;54;20058;31
2023/09/09 05:55:13;;;;;;;12.73;8.95;;;17.10;99.90;;;;;;2584895;54;20910;31
2023/09/09 05:57:50;;;;;;;12.37;8.63;;;17.50;99.90;;;;;;2585955;54;20101;31
2023/09/09 06:00:31;;;;;;;;;;;17.90;99.90;;;;;;2585486;54;21260;31
2023/09/09 06:03:09;;;;;;;12.47;8.90;;;18.30;99.90;;;;;;2604472;46;19940;31
2023/09/09 06:05:49;;;;;;;14.65;9.40;;;18.60;99.90;;;;;;2683187;39;22424;31
2023/09/09 06:08:24;;;;;;;12.40;8.50;;;18.90;99.90;;;;;;2584825;54;20096;31
2023/09/09 06:11:01;;;;;;;13.27;8.53;;;19.20;99.90;;;;;;2585421;54;20908;31
2023/09/09 06:13:40;;;;;;;11.43;8.73;;;19.50;99.90;;;;;;2683755;39;21509;31
2023/09/09 06:16:16;;;;;;;13.60;9.10;;;19.80;99.90;;;;;;2586193;54;20022;31
2023/09/09 06:18:55;;;;;;;11.93;8.90;;;20.00;99.90;;;;;;2683488;39;21562;31
2023/09/09 06:21:28;;;;;;;12.98;9.07;;;20.20;99.90;;;;;;2585855;54;20033;31
2023/09/09 06:24:04;;;;;;;12.87;8.63;;;20.40;99.90;;;;;;2683427;39;21335;31
2023/09/09 06:26:37;;;;;;;13.70;8.93;;;20.60;99.90;;;;;;2585634;54;20917;31
2023/09/09 06:29:10;;;;;;;14.80;8.90;;;20.90;99.90;;;;;;2586041;54;21008;31
2023/09/09 06:31:45;;;;;;;;;;;21.10;99.90;;;;;;2585881;54;20966;31
2023/09/09 06:34:24;;;;;;;13.18;9.75;;;21.30;99.90;;;;;;2585546;54;19954;31
2023/09/09 06:37:02;;;;;;;12.87;9.20;;;21.40;99.90;;;;;;2585874;54;20029;31
2023/09/09 06:39:35;;;;;;;12.45;8.88;;;21.60;99.90;;;;;;2585738;54;21059;31
2023/09/09 06:42:15;;;;;;;13.02;9.10;;;21.80;99.90;;;;;;2585546;54;20026;31
2023/09/09 06:44:56;;;;;;;12.80;8.70;;;21.90;99.90;;;;;;2585839;54;20034;31
2023/09/09 06:47:29;;;;;;;13.38;8.77;;;22.10;99.90;;;;;;2585899;54;20745;31
2023/09/09 06:50:06;;;;;;;11.93;8.63;;;22.30;99.90;;;;;;2601469;47;20046;31
2023/09/09 06:52:51;;;;;;;15.93;9.20;;;22.50;99.90;;;;;;2585818;54;20022;31
2023/09/09 06:55:31;;;;;;;11.77;9.20;;;22.70;99.90;;;;;;2604001;47;20052;31
2023/09/09 06:58:09;;;;;;;11.20;8.65;;;23.00;99.90;;;;;;2603863;47;20235;31
2023/09/09 07:00:41;;;;;;;10.52;8.55;;;23.10;99.90;;;;;;2604126;47;20095;31
2023/09/09 07:03:16;;;;;;;14.43;8.65;;;23.30;99.90;;;;;;2585784;54;20089;31
2023/09/09 07:05:58;;;;;;;11.27;8.32;;;23.40;99.90;;;;;;2586138;54;20767;31
2023/09/09 07:08:29;;;;;;;13.15;8.75;;;23.60;99.90;;;;;;2586665;54;20937;31
2023/09/09 07:11:21;;;;;;;13.90;9.10;;;23.80;99.90;;;;;;2604883;46;20057;31
2023/09/09 07:13:59;;;;;;;13.60;9.00;;;23.90;99.90;;;;;;2604786;46;20317;31
2023/09/09 07:16:35;;;;;;;10.85;8.48;;;24.10;99.90;;;;;;2586763;54;21010;31
2023/09/09 07:19:12;;;;;;;12.05;8.95;;;24.20;99.90;;;;;;2593030;46;20027;31
2023/09/09 07:21:48;;;;;;;;;;;24.30;99.90;;;;;;2586585;54;21001;31
2023/09/09 07:24:32;;;;;;;11.20;7.20;;;24.60;99.90;;;;;;2586546;54;20007;31
2023/09/09 07:27:07;;;;;;;13.10;7.88;;;24.80;99.90;;;;;;2585644;54;20953;31
2023/09/09 07:29:42;;;;;;;11.82;7.28;;;25.00;99.90;;;;;;2586276;54;20758;31
2023/09/09 07:32:22;;;;;;;10.63;7.53;;;25.10;99.90;;;;;;2586739;54;20027;31
2023/09/09 07:35:01;;;;;;;10.60;7.10;;;25.40;99.90;;;;;;2586206;54;20027;31
2023/09/09 07:37:49;;;;;;;9.50;6.90;;;25.70;99.90;;;;;;2586659;54;20027;31
2023/09/09 07:40:26;;;;;;;8.95;6.90;;;25.90;99.90;;;;;;2586333;54;20887;31
2023/09/09 07:43:05;;;;;;;9.23;6.73;;;26.10;99.90;;;;;;2585545;54;20026;31
2023/09/09 07:45:39;;;;;;;9.23;6.87;;;26.20;99.90;;;;;;2586553;54;20888;31
2023/09/09 07:48:13;;;;;;;9.05;6.60;;;26.20;99.90;;;;;;2585531;54;20034;31
2023/09/09 07:50:55;;;;;;;9.65;6.20;;;26.30;99.90;;;;;;2586585;54;19960;31
2023/09/09 07:53:37;;;;;;;8.30;6.30;;;26.50;99.90;;;;;;2586568;54;20937;31
2023/09/09 07:56:18;;;;;;;9.70;6.50;;;26.70;99.90;;;;;;2586613;54;20895;31
2023/09/09 07:58:52;;;;;;;7.05;5.70;;;26.80;99.90;;;;;;2604862;46;20049;31
2023/09/09 08:01:35;;;;;;;7.57;5.60;;;27.00;99.90;;;;;;2586135;54;20880;31
2023/09/09 08:04:14;;;;;;;7.32;6.22;;;27.20;99.90;;;;;;2604688;46;20151;31
2023/09/09 08:06:52;;;;;;;7.07;5.75;;;27.40;99.90;;;;;;2585686;54;20052;31
2023/09/09 08:09:29;;;;;;;7.85;5.88;;;27.50;99.90;;;;;;2586278;54;20048;31
2023/09/09 08:12:04;;;;;;;10.57;5.60;;;27.70;99.90;;;;;;2604925;46;20731;31
2023/09/09 08:14:37;;;;;;;8.40;6.20;;;27.70;99.90;;;;;;2586357;54;20033;31
2023/09/09 08:17:14;;;;;;;8.85;5.90;;;27.70;99.90;;;;;;2586306;54;20858;31
2023/09/09 08:19:49;;;;;;;6.65;5.70;;;27.70;99.90;;;;;;2586202;54;21014;31
2023/09/09 08:22:25;;;;;;;8.40;5.55;;;27.80;99.90;;;;;;2585610;54;21035;31
2023/09/09 08:25:02;;;;;;;9.10;5.30;;;28.00;99.90;;;;;;2585718;54;20875;31
2023/09/09 08:27:42;;;;;;;8.57;5.70;;;28.10;99.90;;;;;;2586734;54;20872;31
2023/09/09 08:30:21;;;;;;;7.13;5.35;;;28.30;99.90;;;;;;2586702;54;20894;31
2023/09/09 08:33:00;;;;;;;11.45;6.40;;;28.40;99.90;;;;;;2586518;54;20023;31
2023/09/09 08:35:39;;;;;;;8.52;5.82;;;28.50;99.90;;;;;;2586567;54;20075;31
2023/09/09 08:38:15;;;;;;;8.40;5.70;;;28.70;99.90;;;;;;2586087;54;20026;31
2023/09/09 08:40:58;;;;;;;8.98;5.80;;;28.90;99.90;;;;;;2586486;54;21040;31
2023/09/09 08:43:39;;;;;;;7.70;5.40;;;28.90;99.90;;;;;;2586467;54;20049;31
2023/09/09 08:46:17;;;;;;;7.35;5.15;;;29.10;99.90;;;;;;2585483;54;20744;31
2023/09/09 08:49:00;;;;;;;8.25;5.28;;;29.00;99.90;;;;;;2586527;54;20089;31
2023/09/09 08:51:40;;;;;;;7.35;5.25;;;29.00;99.90;;;;;;2586298;54;20856;31
2023/09/09 08:54:14;;;;;;;5.50;4.55;;;29.20;99.90;;;;;;2585513;54;20030;31
2023/09/09 08:56:54;;;;;;;7.17;4.77;;;29.20;99.90;;;;;;2585452;54;20031;31
2023/09/09 08:59:29;;;;;;;8.00;4.90;;;29.20;99.90;;;;;;2586173;54;20030;31
2023/09/09 09:02:04;;;;;;;5.70;4.35;;;29.20;99.90;;;;;;2604615;46;20026;31
2023/09/09 09:04:40;;;;;;;6.40;4.75;;;29.10;99.90;;;;;;2586358;54;20913;31
2023/09/09 09:07:17;;;;;;;8.10;4.20;;;29.20;99.90;;;;;;2586452;54;20752;31
2023/09/09 09:09:55;;;;;;;6.38;4.50;;;29.30;99.90;;;;;;2594262;46;20790;31
2023/09/09 09:12:37;;;;;;;6.00;4.47;;;29.40;99.90;;;;;;2604518;46;20033;31
2023/09/09 09:15:14;;;;;;;6.85;4.40;;;29.30;99.90;;;;;;2586157;54;20034;31
2023/09/09 09:17:52;;;;;;;6.00;4.65;;;29.40;99.90;;;;;;2586512;54;20719;31
2023/09/09 09:20:30;;;;;;;7.22;4.95;;;29.50;99.90;;;;;;2586040;54;20036;31
2023/09/09 09:23:04;;;;;;;5.55;4.50;;;29.70;99.90;;;;;;2585793;54;20030;31
2023/09/09 09:25:47;;;;;;;7.47;4.40;;;29.70;99.90;;;;;;2586420;54;20096;31
2023/09/09 09:28:25;;;;;;;6.28;4.45;;;29.70;99.90;;;;;;2585983;54;20032;31
2023/09/09 09:31:00;;;;;;;6.32;4.40;;;29.70;99.90;;;;;;2604141;46;20920;31
2023/09/09 09:33:34;;;;;;;8.33;5.03;;;29.60;99.90;;;;;;2603930;46;21712;31
2023/09/09 09:36:11;;;;;;;5.43;4.63;;;29.60;99.90;;;;;;2585061;54;20880;31
2023/09/09 09:38:48;;;;;;;9.18;4.82;;;29.60;99.90;;;;;;2586176;54;20246;31
2023/09/09 09:41:28;;;;;;;6.50;4.13;;;29.50;99.90;;;;;;2604406;46;20154;31
2023/09/09 09:44:19;;;;;;;6.63;4.53;;;29.60;99.90;;;;;;2586070;54;20026;31
2023/09/09 09:47:03;;;;;;;9.30;4.50;;;29.70;99.90;;;;;;2586166;54;20810;31
2023/09/09 09:49:44;;;;;;;7.25;4.35;;;29.70;99.90;;;;;;2586360;54;20865;31
2023/09/09 09:52:29;;;;;;;6.50;4.75;;;29.70;99.90;;;;;;2586177;54;20790;31
2023/09/09 09:55:06;;;;;;;5.60;4.35;;;29.70;99.90;;;;;;2586315;54;20648;31
2023/09/09 09:57:46;;;;;;;4.88;4.38;;;29.70;99.90;;;;;;2586138;54;20089;31
2023/09/09 10:00:26;;;;;;;7.32;4.90;;;29.70;99.90;;;;;;2585269;54;20978;31
2023/09/09 10:03:03;;;;;;;5.93;4.80;;;29.70;99.90;;;;;;2586484;54;20049;31
2023/09/09 10:05:41;;;;;;;5.30;3.67;;;29.70;99.90;;;;;;2604145;46;20093;31
2023/09/09 10:08:25;;;;;;;9.50;4.65;;;29.60;99.90;;;;;;2585710;54;20896;31
2023/09/09 10:11:04;;;;;;;12.77;5.20;;;29.60;99.90;;;;;;2586159;54;20032;31
2023/09/09 10:13:40;;;;;;;35.00;10.38;;;29.80;99.90;;;;;;2585417;54;20034;31
2023/09/09 10:16:25;;;;;;;21.60;8.13;;;29.80;99.90;;;;;;2586342;54;20653;31
2023/09/09 10:19:02;;;;;;;6.65;4.60;;;29.90;99.90;;;;;;2585060;54;20121;31
2023/09/09 10:21:38;;;;;;;5.63;3.97;;;29.80;99.90;;;;;;2585069;54;20027;31
2023/09/09 10:24:15;;;;;;;5.35;4.00;;;29.90;99.90;;;;;;2586338;54;20026;31
2023/09/09 10:26:49;;;;;;;5.32;4.10;;;29.80;99.90;;;;;;2585271;54;20242;31
2023/09/09 10:29:24;;;;;;;4.75;3.85;;;29.90;99.90;;;;;;2584905;54;21229;31
2023/09/09 10:32:05;;;;;;;6.00;4.10;;;29.90;99.90;;;;;;2682805;39;21646;31
2023/09/09 10:34:39;;;;;;;4.80;3.80;;;30.00;99.90;;;;;;2585974;54;20030;31
2023/09/09 10:37:14;;;;;;;6.70;4.35;;;30.00;99.90;;;;;;2586146;54;20971;31
2023/09/09 10:39:51;;;;;;;5.57;3.95;;;29.90;99.90;;;;;;2585589;54;20047;31
2023/09/09 10:42:28;;;;;;;4.55;3.50;;;29.90;99.90;;;;;;2584942;54;20094;31
2023/09/09 10:45:13;;;;;;;5.00;3.80;;;29.80;99.80;;;;;;2585866;54;20798;31
2023/09/09 10:47:58;;;;;;;4.60;3.73;;;29.70;99.90;;;;;;2586265;54;20048;31
2023/09/09 10:50:52;;;;;;;4.87;3.87;;;29.80;99.90;;;;;;2586278;54;20085;31
2023/09/09 10:53:29;;;;;;;5.45;3.25;;;29.80;99.90;;;;;;2603958;47;20264;31
2023/09/09 10:56:30;;;;;;;6.47;3.85;;;29.80;99.90;;;;;;2586842;47;21637;31
2023/09/09 10:59:04;;;;;;;;;;;29.80;99.90;;;;;;2586296;54;20856;31
2023/09/09 11:01:41;;;;;;;8.50;4.65;;;29.80;99.90;;;;;;2683542;39;21483;31
2023/09/09 11:04:31;;;;;;;5.80;3.88;;;29.60;99.80;;;;;;2584915;54;20089;31
2023/09/09 11:07:13;;;;;;;6.53;3.70;;;29.60;99.90;;;;;;2585387;54;20827;31
2023/09/09 11:09:57;;;;;;;5.20;4.07;;;29.50;99.90;;;;;;2585990;54;20862;31
2023/09/09 11:12:37;;;;;;;5.15;4.03;;;29.50;99.50;;;;;;2604455;47;20026;31
2023/09/09 11:15:15;;;;;;;5.20;3.95;;;29.40;99.90;;;;;;2586140;54;20085;31
2023/09/09 11:17:49;;;;;;;5.15;3.95;;;29.40;99.90;;;;;;2585119;54;20022;31
2023/09/09 11:20:35;;;;;;;5.97;4.05;;;29.40;99.90;;;;;;2604333;47;20026;31
2023/09/09 11:23:14;;;;;;;4.80;3.80;;;29.40;99.90;;;;;;2585790;54;20915;31
2023/09/09 11:25:51;;;;;;;5.60;3.90;;;29.30;99.90;;;;;;2584968;54;20240;31
2023/09/09 11:28:27;;;;;;;7.67;4.97;;;29.30;99.90;;;;;;2585105;54;20053;31
2023/09/09 11:31:04;;;;;;;5.60;3.90;;;29.40;99.90;;;;;;2584819;54;20261;31
2023/09/09 11:33:39;;;;;;;4.90;3.70;;;29.40;99.90;;;;;;2584629;54;20935;31
2023/09/09 11:36:19;;;;;;;;;;;29.40;99.90;;;;;;2586180;54;20261;31
2023/09/09 11:38:59;;;;;;;4.88;3.63;;;29.50;99.90;;;;;;2585555;54;19934;31
2023/09/09 11:41:37;;;;;;;5.90;3.85;;;29.50;99.90;;;;;;2585721;54;20034;31
2023/09/09 11:44:12;;;;;;;6.03;4.07;;;29.40;99.80;;;;;;2585837;54;20054;31
2023/09/09 11:46:50;;;;;;;5.40;3.80;;;29.40;99.70;;;;;;2585373;54;20027;31
2023/09/09 11:49:23;;;;;;;5.20;3.83;;;29.50;99.90;;;;;;2585671;54;20204;31
2023/09/09 11:52:05;;;;;;;5.30;3.65;;;29.50;99.90;;;;;;2683329;39;20410;31
2023/09/09 11:54:40;;;;;;;6.75;3.95;;;29.40;99.70;;;;;;2586513;54;20752;31
2023/09/09 11:57:20;;;;;;;6.65;4.00;;;29.30;99.90;;;;;;2585784;54;21213;31
2023/09/09 12:00:00;;;;;;;4.85;3.22;;;29.20;99.90;;;;;;2586650;54;20030;31
2023/09/09 12:02:41;;;;;;;6.27;4.10;;;29.10;99.80;;;;;;2586351;54;20022;31
2023/09/09 12:05:17;;;;;;;8.80;4.35;;;29.10;99.90;;;;;;2586267;54;20962;31
2023/09/09 12:07:57;;;;;;;4.45;3.85;;;29.00;99.90;;;;;;2586428;54;20827;31
2023/09/09 12:10:42;;;;;;;5.25;3.72;;;29.00;99.90;;;;;;2586555;54;20033;31
2023/09/09 12:13:20;;;;;;;5.00;3.80;;;29.00;99.90;;;;;;2604956;46;20033;31
2023/09/09 12:15:55;;;;;;;6.45;4.00;;;29.00;99.90;;;;;;2684524;39;20401;31
2023/09/09 12:18:39;;;;;;;7.60;3.97;;;29.00;99.90;;;;;;2586647;54;20743;31
2023/09/09 12:21:19;;;;;;;5.93;3.83;;;28.90;99.90;;;;;;2754480;31;22463;31
2023/09/09 12:24:00;;;;;;;5.77;3.63;;;28.90;99.80;;;;;;2586411;54;20863;31
2023/09/09 12:26:37;;;;;;;5.20;3.97;;;28.90;99.90;;;;;;2586191;54;20057;31
2023/09/09 12:29:12;;;;;;;5.43;3.88;;;28.90;99.90;;;;;;2586429;54;20847;31
2023/09/09 12:31:56;;;;;;;5.35;3.80;;;28.90;99.90;;;;;;2586446;54;20098;31
2023/09/09 12:34:34;;;;;;;6.00;3.50;;;28.90;99.90;;;;;;2604506;46;20824;31
2023/09/09 12:37:11;;;;;;;6.38;3.60;;;28.90;99.90;;;;;;2586480;54;21213;31
2023/09/09 12:39:53;;;;;;;5.50;4.05;;;28.90;99.90;;;;;;2586395;54;20023;31
2023/09/09 12:42:29;;;;;;;5.13;3.80;;;29.00;99.90;;;;;;2586054;54;20089;31
2023/09/09 12:45:05;;;;;;;;;;;29.00;99.90;;;;;;2586259;54;20053;31
2023/09/09 12:47:40;;;;;;;7.10;4.20;;;29.00;99.90;;;;;;2702414;39;21306;31
2023/09/09 12:50:16;;;;;;;5.72;3.60;;;28.90;99.90;;;;;;2585571;54;20853;31
2023/09/09 12:52:54;;;;;;;5.60;3.80;;;28.90;99.50;;;;;;2586374;54;20741;31
2023/09/09 12:55:35;;;;;;;4.60;3.30;;;28.90;99.90;;;;;;2586210;54;20759;31
2023/09/09 12:58:10;;;;;;;5.35;3.50;;;28.90;99.90;;;;;;2586620;54;20907;31
2023/09/09 13:00:46;;;;;;;4.13;3.40;;;28.90;99.90;;;;;;2586153;54;20109;31
2023/09/09 13:03:21;;;;;;;4.60;3.33;;;28.80;99.10;;;;;;2585910;54;20026;31
2023/09/09 13:05:56;;;;;;;;;;;28.80;99.60;;;;;;2586754;54;20258;31
2023/09/09 13:08:33;;;;;;;7.70;4.70;;;28.80;99.60;;;;;;2586661;54;19957;31
2023/09/09 13:11:14;;;;;;;6.05;4.00;;;28.80;99.70;;;;;;2586271;54;20064;31
2023/09/09 13:13:51;;;;;;;5.20;4.05;;;28.80;99.90;;;;;;2586017;54;19935;31
2023/09/09 13:16:41;;;;;;;6.67;3.60;;;28.80;99.80;;;;;;2586063;54;20030;31
2023/09/09 13:19:19;;;;;;;5.90;3.20;;;28.90;98.80;;;;;;2586342;54;20056;31
2023/09/09 13:21:53;;;;;;;5.47;4.00;;;28.90;99.80;;;;;;2586232;54;20871;31
2023/09/09 13:24:36;;;;;;;8.00;5.17;;;28.90;99.90;;;;;;2586015;54;21457;31
2023/09/09 13:27:16;;;;;;;4.07;3.28;;;28.90;99.00;;;;;;2604112;46;20157;31
2023/09/09 13:29:53;;;;;;;4.30;3.65;;;28.80;97.60;;;;;;2604619;46;20820;31
2023/09/09 13:32:28;;;;;;;4.50;3.13;;;28.80;98.20;;;;;;2586162;54;19985;31
2023/09/09 13:35:08;;;;;;;5.18;3.83;;;28.70;98.40;;;;;;2586133;54;20845;31
2023/09/09 13:37:51;;;;;;;14.93;7.90;;;28.70;99.10;;;;;;2604709;46;20902;31
2023/09/09 13:40:28;;;;;;;8.80;5.03;;;28.70;98.00;;;;;;2586070;54;20238;31
2023/09/09 13:43:12;;;;;;;6.47;3.70;;;28.70;98.70;;;;;;2604620;46;21164;31
2023/09/09 13:45:58;;;;;;;6.65;3.80;;;28.70;97.70;;;;;;2586330;54;20057;31